Time;durP1;ratioP1;P1;durP2;ratioP2;P2;SDS_P1;SDS_P2;PMS_P1;PMS_P2;Temp;Humidity;BMP_temperature;BMP_pressure;BME280_temperature;BME280_humidity;BME280_pressure;Samples;Min_cycle;Max_cycle;Signal;HPM_P1;HPM_P2
2022/12/28 00:01:22;;;;;;;9.10;3.95;;;;;;;2.35;67.36;101222.97;4477408;31;32471;-72
2022/12/28 00:03:51;;;;;;;9.15;3.80;;;;;;;1.51;69.92;101230.66;4478956;32;33602;-72
2022/12/28 00:06:20;;;;;;;8.63;3.80;;;;;;;0.67;73.72;101235.44;4479897;31;33757;-72
2022/12/28 00:08:48;;;;;;;9.73;3.90;;;;;;;1.18;73.11;101227.31;4477668;31;32398;-72
2022/12/28 00:11:18;;;;;;;12.25;4.85;;;;;;;1.29;72.81;101232.63;4479035;32;34428;-73
2022/12/28 00:14:00;;;;;;;9.60;4.25;;;;;;;1.22;72.91;101237.81;4478384;31;33302;-73
2022/12/28 00:16:39;;;;;;;8.55;3.67;;;;;;;1.93;70.75;101235.78;4480143;31;35460;-73
2022/12/28 00:19:11;;;;;;;10.80;4.72;;;;;;;1.80;70.77;101235.28;4479493;31;34000;-73
2022/12/28 00:21:40;;;;;;;8.30;3.72;;;;;;;2.09;69.89;101223.84;4479152;32;33921;-72
2022/12/28 00:24:11;;;;;;;9.60;4.20;;;;;;;2.89;66.83;101231.75;4478731;32;33183;-73
2022/12/28 00:26:38;;;;;;;8.32;3.53;;;;;;;1.99;70.04;101226.22;4477172;31;32494;-73
2022/12/28 00:29:06;;;;;;;12.57;5.43;;;;;;;2.06;69.39;101231.16;4478563;32;33477;-72
2022/12/28 00:31:33;;;;;;;8.88;3.85;;;;;;;2.02;69.51;101231.62;4478398;32;34272;-73
2022/12/28 00:34:02;;;;;;;9.30;4.05;;;;;;;1.83;69.82;101235.59;4478923;31;33343;-72
2022/12/28 00:36:30;;;;;;;9.40;3.72;;;;;;;2.05;68.67;101231.94;4481028;31;34116;-72
2022/12/28 00:39:19;;;;;;;8.85;3.60;;;;;;;2.13;68.42;101225.06;4478699;32;33272;-73
2022/12/28 00:41:47;;;;;;;12.48;3.75;;;;;;;1.60;70.42;101223.91;4477176;31;34546;-73
2022/12/28 00:44:14;;;;;;;8.38;3.33;;;;;;;1.93;69.01;101235.78;4478934;31;32141;-72
2022/12/28 00:46:42;;;;;;;8.70;3.67;;;;;;;2.16;68.36;101233.94;4479028;31;33383;-73
2022/12/28 00:49:10;;;;;;;11.93;4.80;;;;;;;2.21;67.81;101238.59;4478481;31;32676;-73
2022/12/28 00:51:38;;;;;;;8.48;4.22;;;;;;;2.29;67.66;101236.06;4479395;31;33122;-72
2022/12/28 00:54:05;;;;;;;8.18;3.65;;;;;;;1.34;71.31;101250.22;4478761;32;33254;-73
2022/12/28 00:56:33;;;;;;;8.90;3.62;;;;;;;1.78;70.26;101245.38;4481197;31;33810;-72
2022/12/28 00:59:01;;;;;;;9.13;3.97;;;;;;;2.58;67.04;101249.97;4479114;32;33683;-73
2022/12/28 01:01:28;;;;;;;8.50;3.78;;;;;;;1.98;69.37;101249.94;4477158;31;33571;-73
2022/12/28 01:03:57;;;;;;;7.35;3.62;;;;;;;2.32;67.94;101253.38;4478589;32;33016;-72
2022/12/28 01:06:27;;;;;;;8.13;3.83;;;;;;;3.26;64.76;101250.69;4479741;31;33808;-73
2022/12/28 01:08:54;;;;;;;8.00;3.42;;;;;;;3.30;63.58;101252.81;4478430;32;34694;-73
2022/12/28 01:11:27;;;;;;;8.73;3.78;;;;;;;2.85;64.87;101260.34;4479029;31;33837;-73
2022/12/28 01:13:57;;;;;;;9.82;3.72;;;;;;;2.62;65.42;101259.75;4475640;31;32957;-73
2022/12/28 01:16:27;;;;;;;9.82;4.12;;;;;;;2.24;67.19;101259.34;4479457;31;33517;-72
2022/12/28 01:18:57;;;;;;;10.15;4.10;;;;;;;2.30;67.07;101258.31;4479029;31;33030;-72
2022/12/28 01:21:27;;;;;;;9.25;4.80;;;;;;;2.01;68.91;101265.59;4475549;32;33344;-73
2022/12/28 01:23:56;;;;;;;9.70;4.65;;;;;;;2.04;68.66;101265.00;4478726;31;34157;-73
2022/12/28 01:26:25;;;;;;;10.95;5.05;;;;;;;1.71;69.97;101266.81;4476965;32;34442;-73
2022/12/28 01:28:53;;;;;;;12.80;4.93;;;;;;;1.71;70.46;101258.25;4480051;31;33959;-72
2022/12/28 01:31:20;;;;;;;10.95;5.20;;;;;;;1.73;70.13;101272.97;4478663;31;34064;-72
2022/12/28 01:33:50;;;;;;;12.07;5.55;;;;;;;1.44;71.30;101264.84;4478284;31;34262;-72
2022/12/28 01:36:20;;;;;;;15.10;5.87;;;;;;;1.15;72.59;101272.00;4475438;31;35754;-73
2022/12/28 01:38:50;;;;;;;11.73;4.78;;;;;;;0.85;73.66;101267.09;4478476;31;32525;-72
2022/12/28 01:41:18;;;;;;;10.98;5.00;;;;;;;0.76;74.80;101272.16;4477323;32;33926;-72
2022/12/28 01:44:06;;;;;;;10.65;5.43;;;;;;;1.40;72.53;101264.37;4477832;31;33148;-72
2022/12/28 01:46:40;;;;;;;10.75;5.60;;;;;;;1.55;71.44;101256.66;4477582;32;33778;-72
2022/12/28 01:49:27;;;;;;;11.98;5.15;;;;;;;1.53;71.45;101250.50;4477668;31;33795;-72
2022/12/28 01:52:01;;;;;;;10.98;4.22;;;;;;;1.82;70.02;101251.69;4477197;32;34432;-72
2022/12/28 01:54:32;;;;;;;8.55;4.50;;;;;;;1.55;71.01;101250.66;4477789;31;33087;-72
2022/12/28 01:57:02;;;;;;;10.13;4.20;;;;;;;1.44;71.98;101252.09;4478558;32;33820;-72
2022/12/28 01:59:32;;;;;;;11.23;4.55;;;;;;;1.73;70.51;101239.75;4478080;31;33528;-71
2022/12/28 02:02:00;;;;;;;10.32;4.37;;;;;;;1.40;71.58;101238.84;4479241;32;33618;-72
2022/12/28 02:04:28;;;;;;;8.93;3.67;;;;;;;2.11;68.76;101227.44;4479905;31;34158;-72
2022/12/28 02:06:56;;;;;;;7.20;3.62;;;;;;;2.28;68.63;101230.78;4479612;31;36902;-72
2022/12/28 02:09:35;;;;;;;7.53;4.12;;;;;;;2.48;67.33;101231.13;4479869;31;33542;-72
2022/12/28 02:12:05;;;;;;;9.70;3.67;;;;;;;1.79;69.35;101224.16;4464600;32;33455;-72
2022/12/28 02:14:32;;;;;;;9.10;4.00;;;;;;;1.85;69.29;101226.44;4479580;31;33553;-72
2022/12/28 02:17:00;;;;;;;9.40;4.35;;;;;;;1.77;69.48;101221.44;4479029;31;34436;-72
2022/12/28 02:19:44;;;;;;;5.70;3.22;;;;;;;1.53;70.23;101216.41;4479785;32;34297;-73
2022/12/28 02:22:34;;;;;;;6.53;2.90;;;;;;;1.78;69.99;101209.59;4479198;32;34348;-72
2022/12/28 02:25:18;;;;;;;7.53;3.45;;;;;;;2.50;67.65;101219.41;4479708;31;33578;-72
2022/12/28 02:28:20;;;;;;;7.80;3.80;;;;;;;2.54;67.39;101226.63;4479873;31;33097;-72
2022/12/28 02:31:02;;;;;;;10.65;3.87;;;;;;;2.35;67.73;101238.31;4480502;32;33805;-72
2022/12/28 02:33:36;;;;;;;8.68;4.00;;;;;;;1.83;69.62;101238.16;4477963;32;34452;-72
2022/12/28 02:36:11;;;;;;;8.68;3.83;;;;;;;1.99;68.83;101230.41;4480093;31;34252;-72
2022/12/28 02:38:52;;;;;;;11.43;3.97;;;;;;;2.04;69.36;101231.78;4478666;31;34277;-72
2022/12/28 02:41:22;;;;;;;8.23;4.20;;;;;;;2.25;68.48;101230.50;4486501;31;33836;-72
2022/12/28 02:43:51;;;;;;;10.23;3.67;;;;;;;3.10;66.20;101229.50;4486537;31;33562;-72
2022/12/28 02:52:25;;;;;;;8.43;4.10;;;;;;;2.42;67.19;101227.97;4484807;32;34696;-72
2022/12/28 02:58:13;;;;;;;10.02;3.62;;;;;;;1.81;69.15;101229.44;4470319;31;33095;-73
2022/12/28 03:01:18;;;;;;;9.68;4.10;;;;;;;1.79;69.83;101213.06;4481428;32;33615;-72
2022/12/28 03:04:04;;;;;;;8.93;4.30;;;;;;;1.58;69.71;101217.75;4485583;32;34080;-72
2022/12/28 03:09:41;;;;;;;9.63;4.05;;;;;;;1.66;69.89;101218.53;4487813;31;33434;-72
2022/12/28 03:12:18;;;;;;;8.30;3.92;;;;;;;3.61;64.60;101219.91;4491019;31;34671;-71
2022/12/28 03:15:09;;;;;;;8.07;3.65;;;;;;;3.45;63.64;101201.25;4486464;31;34075;-72
2022/12/28 03:31:41;;;;;;;9.98;4.47;;;;;;;1.52;70.42;101199.25;4499725;31;31999;-72
2022/12/28 03:34:09;;;;;;;9.30;4.30;;;;;;;1.34;71.09;101194.06;4492989;31;33517;-72
2022/12/28 03:37:04;;;;;;;9.23;3.75;;;;;;;1.59;71.39;101199.16;4479434;31;34733;-72
2022/12/28 03:40:00;;;;;;;9.05;4.18;;;;;;;2.53;68.68;101194.13;4498058;31;34516;-72
2022/12/28 03:45:31;;;;;;;6.55;3.60;;;;;;;2.53;67.14;101194.13;4485637;31;33861;-72
2022/12/28 03:48:14;;;;;;;10.07;3.97;;;;;;;1.72;70.07;101178.28;4493012;31;34651;-72
2022/12/28 03:50:45;;;;;;;9.70;4.00;;;;;;;1.16;73.03;101181.97;4491911;31;34405;-72
2022/12/28 03:53:15;;;;;;;8.80;4.10;;;;;;;1.07;72.33;101183.53;4479900;31;33405;-72
2022/12/28 03:55:43;;;;;;;11.05;4.60;;;;;;;1.34;71.81;101178.75;4485984;31;32974;-72
2022/12/28 03:58:11;;;;;;;10.38;4.22;;;;;;;0.88;73.30;101173.94;4500107;31;33975;-72
2022/12/28 04:00:39;;;;;;;13.35;5.20;;;;;;;1.42;71.31;101170.97;4493350;31;33613;-72
2022/12/28 04:03:07;;;;;;;9.77;4.93;;;;;;;1.87;70.38;101168.72;4490783;31;33274;-72
2022/12/28 04:05:34;;;;;;;12.60;5.53;;;;;;;3.32;65.43;101163.31;4495810;31;33537;-72
2022/12/28 04:08:02;;;;;;;11.43;4.60;;;;;;;3.69;63.35;101154.91;4487208;31;34679;-72
2022/12/28 04:10:29;;;;;;;9.10;4.22;;;;;;;2.19;67.05;101154.06;4485101;32;33766;-72
2022/12/28 04:12:57;;;;;;;8.23;3.92;;;;;;;2.15;68.26;101149.41;4484916;32;33515;-71
2022/12/28 04:15:25;;;;;;;8.75;4.20;;;;;;;1.90;69.70;101154.63;4485391;32;34484;-72
2022/12/28 04:17:53;;;;;;;9.57;4.03;;;;;;;3.04;64.59;101144.41;4485130;32;34418;-72
2022/12/28 04:20:22;;;;;;;8.82;3.95;;;;;;;3.21;63.64;101139.25;4467670;32;33829;-72
2022/12/28 04:22:50;;;;;;;11.12;4.72;;;;;;;2.37;67.15;101145.66;4493436;31;33456;-71
2022/12/28 04:25:18;;;;;;;10.05;4.30;;;;;;;3.58;63.29;101145.28;4500651;31;35314;-72
2022/12/28 04:27:45;;;;;;;9.00;3.90;;;;;;;4.27;61.35;101132.84;4488240;31;34531;-72
2022/12/28 04:30:15;;;;;;;6.85;3.60;;;;;;;5.48;56.79;101124.66;4490750;31;34072;-72
2022/12/28 04:32:42;;;;;;;9.05;3.53;;;;;;;3.26;60.89;101132.00;4494490;31;34079;-72
2022/12/28 04:35:10;;;;;;;10.05;3.60;;;;;;;3.35;62.37;101132.88;4476038;31;33921;-72
2022/12/28 04:37:38;;;;;;;8.10;3.60;;;;;;;4.30;60.00;101127.97;4486664;31;33904;-72
2022/12/28 04:40:07;;;;;;;8.35;3.90;;;;;;;3.70;60.58;101138.75;4495118;31;33673;-72
2022/12/28 04:42:34;;;;;;;7.80;3.50;;;;;;;4.80;58.09;101126.47;4493982;31;32886;-72
2022/12/28 04:45:02;;;;;;;9.18;4.45;;;;;;;5.80;55.54;101126.53;4491579;31;33710;-72
2022/12/28 04:47:30;;;;;;;9.00;4.05;;;;;;;7.12;50.24;101132.28;4487143;31;33943;-72
2022/12/28 04:49:57;;;;;;;11.35;4.55;;;;;;;7.86;47.88;101133.78;4485935;31;34473;-72
2022/12/28 04:52:25;;;;;;;7.80;3.75;;;;;;;6.57;49.50;101132.97;4485236;31;33397;-72
2022/12/28 04:54:52;;;;;;;6.95;4.10;;;;;;;8.00;46.80;101124.53;4486755;31;34052;-72
2022/12/28 04:57:20;;;;;;;9.05;4.22;;;;;;;5.45;51.61;101140.75;4489562;31;34571;-72
2022/12/28 04:59:47;;;;;;;9.90;3.97;;;;;;;3.92;57.83;101141.66;4492952;31;34185;-72
2022/12/28 05:02:15;;;;;;;7.82;3.47;;;;;;;3.36;60.23;101150.03;4497090;31;33726;-72
2022/12/28 05:04:43;;;;;;;9.02;3.80;;;;;;;1.89;66.45;101151.91;4490581;31;33933;-72
2022/12/28 05:07:10;;;;;;;10.68;4.78;;;;;;;4.47;58.19;101150.03;4490725;31;34408;-72
2022/12/28 05:09:38;;;;;;;9.70;4.30;;;;;;;2.51;62.36;101152.16;4492618;31;33997;-72
2022/12/28 05:12:05;;;;;;;9.35;3.95;;;;;;;1.06;69.18;101153.66;4495019;31;33152;-72
2022/12/28 05:14:32;;;;;;;7.65;3.62;;;;;;;0.47;73.01;101161.94;4490119;31;34563;-71
2022/12/28 05:17:04;;;;;;;24.67;10.65;;;;;;;2.79;66.65;101157.41;4486127;31;34018;-72
2022/12/28 05:19:31;;;;;;;47.25;22.10;;;;;;;4.45;59.25;101144.75;4491733;31;33813;-72
2022/12/28 05:21:59;;;;;;;39.33;16.33;;;;;;;4.05;59.68;101148.81;4484095;31;33247;-72
2022/12/28 05:24:27;;;;;;;33.70;14.10;;;;;;;5.48;54.46;101140.09;4488884;31;34615;-72
2022/12/28 05:26:54;;;;;;;13.25;6.68;;;;;;;5.48;54.65;101150.38;4488969;31;33831;-72
2022/12/28 05:29:22;;;;;;;15.15;6.50;;;;;;;4.45;56.66;101147.31;4492253;31;33260;-72
2022/12/28 05:31:49;;;;;;;11.23;6.12;;;;;;;4.03;58.19;101155.44;4494014;31;33766;-72
2022/12/28 05:34:17;;;;;;;9.60;5.32;;;;;;;3.95;58.56;101151.28;4483934;31;33605;-71
2022/12/28 05:36:44;;;;;;;11.48;5.15;;;;;;;4.51;56.93;101141.84;4486033;31;33755;-72
2022/12/28 05:39:12;;;;;;;12.07;5.72;;;;;;;3.62;58.61;101149.94;4494038;31;32744;-72
2022/12/28 05:41:39;;;;;;;12.37;5.30;;;;;;;3.52;59.98;101147.28;4498023;31;33064;-72
2022/12/28 05:44:07;;;;;;;18.55;8.25;;;;;;;3.10;61.12;101150.12;4484323;31;34354;-72
2022/12/28 05:46:34;;;;;;;16.77;8.80;;;;;;;2.59;62.88;101139.19;4488716;31;33658;-72
2022/12/28 05:49:02;;;;;;;14.05;6.40;;;;;;;2.55;63.79;101146.59;4489450;31;34765;-72
2022/12/28 05:51:31;;;;;;;15.23;7.05;;;;;;;2.83;63.26;101150.94;4482982;32;33335;-72
2022/12/28 05:54:03;;;;;;;13.77;6.82;;;;;;;2.89;62.76;101144.72;4483130;32;32436;-72
2022/12/28 05:56:31;;;;;;;20.12;9.50;;;;;;;6.22;52.56;101134.44;4483231;32;33954;-72
2022/12/28 05:59:02;;;;;;;9.93;5.28;;;;;;;7.59;47.06;101142.88;4484101;32;34349;-72
2022/12/28 06:01:34;;;;;;;11.45;3.90;;;;;;;8.21;45.17;101142.44;4484053;32;32754;-71
2022/12/28 06:04:07;;;;;;;9.82;4.25;;;;;;;8.13;45.05;101138.34;4483766;32;34550;-73
2022/12/28 06:06:35;;;;;;;8.23;4.35;;;;;;;5.37;50.12;101151.09;4482880;32;33846;-72
2022/12/28 06:09:03;;;;;;;12.37;5.97;;;;;;;2.59;60.65;101151.97;4483738;32;33803;-72
2022/12/28 06:11:30;;;;;;;16.23;6.95;;;;;;;1.57;64.99;101167.44;4483761;32;33320;-72
2022/12/28 06:13:58;;;;;;;11.82;5.40;;;;;;;1.99;65.19;101154.66;4484530;31;33802;-72
2022/12/28 06:16:28;;;;;;;10.23;4.43;;;;;;;2.44;64.40;101152.28;4485627;31;34616;-72
2022/12/28 06:18:56;;;;;;;9.60;4.87;;;;;;;2.08;64.65;101154.66;4494027;31;34538;-71
2022/12/28 06:21:28;;;;;;;14.60;5.95;;;;;;;2.05;64.93;101150.16;4490143;31;34004;-72
2022/12/28 06:23:57;;;;;;;13.50;5.97;;;;;;;1.74;65.57;101157.28;4491883;31;32263;-72
2022/12/28 06:26:27;;;;;;;14.18;5.80;;;;;;;1.25;67.77;101156.47;4491103;31;34465;-73
2022/12/28 06:28:55;;;;;;;7.70;3.90;;;;;;;2.24;65.53;101158.00;4495082;31;33672;-71
2022/12/28 06:31:25;;;;;;;12.10;4.75;;;;;;;2.31;65.16;101144.16;4489986;31;33951;-72
2022/12/28 06:33:55;;;;;;;11.55;4.72;;;;;;;2.58;63.92;101151.09;4477842;31;32977;-72
2022/12/28 06:36:27;;;;;;;10.90;4.68;;;;;;;2.00;66.03;101161.56;4489074;31;33221;-73
2022/12/28 06:38:56;;;;;;;9.68;4.32;;;;;;;1.56;67.47;101166.53;4479649;31;34897;-71
2022/12/28 06:41:25;;;;;;;9.18;4.20;;;;;;;1.23;68.93;101158.84;4480903;32;34067;-73
2022/12/28 06:43:53;;;;;;;10.57;4.75;;;;;;;1.73;68.02;101164.78;4483965;32;33886;-72
2022/12/28 06:46:22;;;;;;;14.20;5.12;;;;;;;0.92;70.33;101172.63;4480949;32;36023;-73
2022/12/28 06:48:50;;;;;;;14.10;7.60;;;;;;;0.37;72.41;101166.06;4482943;32;34581;-72
2022/12/28 06:51:23;;;;;;;19.98;8.27;;;;;;;0.12;74.64;101177.81;4486154;31;33399;-73
2022/12/28 06:53:52;;;;;;;20.92;8.80;;;;;;;0.91;72.20;101164.09;4484553;32;34750;-73
2022/12/28 06:56:26;;;;;;;29.00;13.40;;;;;;;1.17;70.79;101171.00;4481300;32;32534;-73
2022/12/28 06:58:54;;;;;;;27.02;12.95;;;;;;;1.77;68.74;101172.91;4468274;32;33158;-72
2022/12/28 07:01:39;;;;;;;23.87;11.48;;;;;;;2.86;65.64;101164.94;4483890;32;33243;-72
2022/12/28 07:04:09;;;;;;;18.02;8.32;;;;;;;4.52;59.61;101159.94;4488940;31;90961;-73
2022/12/28 07:06:39;;;;;;;15.25;6.00;;;;;;;5.89;55.26;101151.38;4485787;32;34790;-73
2022/12/28 07:09:12;;;;;;;11.70;5.28;;;;;;;6.32;52.91;101150.62;4484048;32;33064;-73
2022/12/28 07:11:41;;;;;;;9.85;5.95;;;;;;;7.47;49.24;101147.03;4492464;31;34055;-73
2022/12/28 07:14:09;;;;;;;11.45;6.25;;;;;;;6.89;50.51;101146.81;4481487;31;33871;-73
2022/12/28 07:16:38;;;;;;;10.30;5.62;;;;;;;6.54;51.69;101158.47;4475897;31;33827;-73
2022/12/28 07:19:04;;;;;;;11.82;5.90;;;;;;;5.43;54.01;101159.37;4486608;31;34352;-72
2022/12/28 07:21:34;;;;;;;10.45;4.75;;;;;;;4.50;56.54;101161.47;4484753;31;33082;-73
2022/12/28 07:24:03;;;;;;;15.88;7.47;;;;;;;4.37;57.10;101163.69;4487352;31;32978;-72
2022/12/28 07:26:33;;;;;;;15.45;8.25;;;;;;;4.93;56.07;101152.47;4482090;32;33973;-73
2022/12/28 07:29:02;;;;;;;19.85;8.40;;;;;;;5.23;55.40;101145.66;4495515;31;34179;-73
2022/12/28 07:31:39;;;;;;;13.18;6.87;;;;;;;6.13;53.16;101143.06;4490582;31;33604;-74
2022/12/28 07:34:13;;;;;;;12.40;6.40;;;;;;;7.61;48.94;101143.88;4492626;31;33650;-73
2022/12/28 07:36:41;;;;;;;16.58;7.07;;;;;;;7.46;48.48;101140.09;4494094;31;33627;-73
2022/12/28 07:39:09;;;;;;;12.63;7.18;;;;;;;7.28;49.22;101140.47;4485154;32;34036;-73
2022/12/28 07:41:37;;;;;;;14.00;7.65;;;;;;;7.31;49.43;101139.78;4489172;31;32751;-73
2022/12/28 07:44:05;;;;;;;13.68;6.10;;;;;;;8.01;47.96;101143.47;4485363;32;33701;-72
2022/12/28 07:46:35;;;;;;;8.68;5.50;;;;;;;7.92;47.52;101143.69;4485204;32;34003;-73
2022/12/28 07:49:04;;;;;;;10.60;5.07;;;;;;;8.52;46.28;101134.41;4485341;32;34239;-74
2022/12/28 07:51:33;;;;;;;9.75;5.82;;;;;;;8.45;46.22;101146.84;4496430;31;34150;-73
2022/12/28 07:54:02;;;;;;;11.70;6.10;;;;;;;7.74;47.77;101147.41;4487677;31;34478;-74
2022/12/28 07:56:31;;;;;;;14.60;6.30;;;;;;;6.29;51.30;101151.28;4484722;31;33976;-73
2022/12/28 07:59:00;;;;;;;13.43;7.00;;;;;;;6.32;52.06;101156.69;4495435;31;33316;-73
2022/12/28 08:01:31;;;;;;;17.00;7.87;;;;;;;5.67;53.97;101161.47;4479234;31;33438;-71
2022/12/28 08:04:01;;;;;;;28.77;12.65;;;;;;;5.75;54.44;101163.81;4484098;31;33891;-73
2022/12/28 08:06:31;;;;;;;22.77;11.32;;;;;;;5.26;56.06;101171.63;4479662;31;33133;-73
2022/12/28 08:09:00;;;;;;;19.48;9.73;;;;;;;5.16;56.92;101163.91;4481667;32;33584;-73
2022/12/28 08:11:30;;;;;;;17.08;10.10;;;;;;;4.19;59.69;101177.38;4479344;32;31875;-74
2022/12/28 08:13:58;;;;;;;15.23;8.95;;;;;;;5.20;57.57;101165.97;4485455;31;33965;-73
2022/12/28 08:16:27;;;;;;;16.12;8.88;;;;;;;5.45;56.99;101168.13;4481946;31;32278;-73
2022/12/28 08:18:55;;;;;;;15.40;8.68;;;;;;;6.73;53.04;101150.56;4480678;31;33849;-73
2022/12/28 08:21:29;;;;;;;14.38;9.05;;;;;;;7.39;51.22;101154.19;4480553;32;34357;-74
2022/12/28 08:23:58;;;;;;;21.02;11.10;;;;;;;7.84;50.15;101148.25;4478473;32;34784;-74
2022/12/28 08:26:38;;;;;;;18.45;9.18;;;;;;;7.52;51.11;101150.00;4484542;31;32910;-74
2022/12/28 08:29:14;;;;;;;15.98;8.07;;;;;;;7.70;50.57;101145.37;4486954;31;33666;-73
2022/12/28 08:31:43;;;;;;;18.37;10.05;;;;;;;7.17;52.24;101136.13;4486079;31;34081;-74
2022/12/28 08:34:16;;;;;;;17.08;9.70;;;;;;;6.89;52.90;101138.16;4482556;32;34156;-74
2022/12/28 08:36:43;;;;;;;19.50;9.35;;;;;;;6.51;54.20;101146.25;4488703;31;33644;-74
2022/12/28 08:39:13;;;;;;;16.02;9.20;;;;;;;6.82;54.10;101147.06;4484842;32;33492;-73
2022/12/28 08:41:40;;;;;;;16.58;10.00;;;;;;;7.37;52.62;101148.00;4490879;31;33312;-74
2022/12/28 08:44:08;;;;;;;20.42;10.70;;;;;;;7.36;52.76;101151.38;4485565;31;33594;-73
2022/12/28 08:46:36;;;;;;;21.77;10.82;;;;;;;7.58;52.45;101151.38;4491105;31;33734;-73
2022/12/28 08:49:04;;;;;;;20.48;9.95;;;;;;;8.06;51.21;101150.78;4488254;31;34855;-74
2022/12/28 08:51:34;;;;;;;17.75;8.88;;;;;;;8.00;51.41;101147.75;4484675;32;32844;-74
2022/12/28 08:54:03;;;;;;;18.77;9.15;;;;;;;7.91;52.41;101151.28;4490592;31;33639;-74
2022/12/28 08:56:36;;;;;;;23.65;11.82;;;;;;;7.97;52.22;101147.50;4484504;32;33713;-74
2022/12/28 08:59:04;;;;;;;33.42;15.40;;;;;;;8.03;52.38;101155.69;4484664;32;33920;-74
2022/12/28 09:01:34;;;;;;;50.00;20.98;;;;;;;8.22;52.08;101145.09;4484710;32;33008;-74
2022/12/28 09:04:20;;;;;;;37.22;16.62;;;;;;;8.56;51.49;101151.94;4484427;32;33907;-74
2022/12/28 09:06:48;;;;;;;38.45;18.80;;;;;;;8.94;50.85;101156.44;4487792;31;34873;-74
2022/12/28 09:09:18;;;;;;;29.05;14.40;;;;;;;8.96;51.21;101149.69;4483583;32;34133;-74
2022/12/28 09:11:46;;;;;;;19.33;10.57;;;;;;;8.59;52.53;101147.00;4493432;31;33861;-74
2022/12/28 09:14:14;;;;;;;29.65;15.10;;;;;;;9.09;51.42;101141.16;4485341;31;33571;-74
2022/12/28 09:16:52;;;;;;;37.20;20.08;;;;;;;9.07;51.66;101127.22;4484233;32;33636;-74
2022/12/28 09:19:20;;;;;;;32.67;19.80;;;;;;;9.27;51.09;101131.22;4486770;31;33467;-74
2022/12/28 09:21:51;;;;;;;37.03;21.52;;;;;;;9.70;49.54;101113.56;4484802;32;34037;-74
2022/12/28 09:24:19;;;;;;;18.58;10.52;;;;;;;9.75;49.40;101113.06;4484756;32;35197;-74
2022/12/28 09:26:47;;;;;;;34.55;23.92;;;;;;;9.09;50.74;101104.97;4481937;32;33738;-74
2022/12/28 09:29:14;;;;;;;45.35;24.02;;;;;;;9.17;51.20;101107.28;4481781;32;33594;-74
2022/12/28 09:31:43;;;;;;;32.88;19.98;;;;;;;8.71;51.74;101101.41;4482979;32;33527;-74
2022/12/28 09:34:12;;;;;;;31.27;19.95;;;;;;;9.48;50.13;101101.69;4484123;32;34509;-74
2022/12/28 09:37:00;;;;;;;20.60;11.55;;;;;;;8.91;51.99;101094.22;4482455;32;33457;-74
2022/12/28 09:39:28;;;;;;;19.62;10.77;;;;;;;9.58;50.31;101098.97;4483014;32;34119;-74
2022/12/28 09:41:58;;;;;;;25.25;12.50;;;;;;;9.36;50.81;101100.84;4488313;31;34162;-74
2022/12/28 09:44:49;;;;;;;20.67;10.90;;;;;;;9.24;50.58;101106.06;4491412;31;34165;-74
2022/12/28 09:47:39;;;;;;;17.70;10.98;;;;;;;9.69;49.51;101091.06;4470330;32;34069;-74
2022/12/28 09:50:22;;;;;;;16.02;11.43;;;;;;;9.58;49.40;101098.06;4468715;32;33769;-74
2022/12/28 09:53:05;;;;;;;19.75;9.80;;;;;;;9.05;50.00;101085.75;4484325;32;33204;-74
2022/12/28 09:55:35;;;;;;;14.68;9.63;;;;;;;9.73;48.53;101087.87;4484232;32;33683;-74
2022/12/28 09:58:05;;;;;;;20.00;10.80;;;;;;;10.13;47.64;101081.13;4482490;32;33801;-74
2022/12/28 10:00:41;;;;;;;17.27;9.43;;;;;;;9.29;49.80;101078.84;4482903;32;34035;-74
2022/12/28 10:03:21;;;;;;;17.37;9.05;;;;;;;9.60;49.09;101074.13;4483880;32;33257;-74
2022/12/28 10:05:50;;;;;;;15.30;9.57;;;;;;;9.72;48.94;101061.13;4484222;31;33607;-74
2022/12/28 10:08:20;;;;;;;15.55;8.65;;;;;;;9.98;48.60;101049.91;4481818;31;33827;-74
2022/12/28 10:10:48;;;;;;;16.15;9.50;;;;;;;9.90;48.68;101048.50;4479893;31;34650;-74
2022/12/28 10:13:28;;;;;;;19.52;9.68;;;;;;;10.17;47.95;101051.16;4488230;31;33935;-74
2022/12/28 10:16:17;;;;;;;18.55;10.73;;;;;;;10.48;47.00;101053.22;4495645;31;33812;-74
2022/12/28 10:18:46;;;;;;;17.42;9.80;;;;;;;9.69;48.89;101044.47;4480248;31;33675;-74
2022/12/28 10:21:17;;;;;;;16.58;9.32;;;;;;;10.47;47.21;101038.44;4483540;32;33722;-74
2022/12/28 10:23:47;;;;;;;28.08;16.27;;;;;;;10.42;47.26;101044.22;4485994;31;33199;-74
2022/12/28 10:26:34;;;;;;;26.40;15.65;;;;;;;11.01;45.75;101048.88;4481925;32;33809;-75
2022/12/28 10:29:02;;;;;;;25.60;12.50;;;;;;;10.90;45.65;101043.81;4492051;31;34615;-74
2022/12/28 10:31:38;;;;;;;26.95;17.20;;;;;;;10.76;45.21;101038.66;4496987;31;33516;-74
2022/12/28 10:34:23;;;;;;;19.50;11.60;;;;;;;11.64;43.83;101037.97;4482739;31;33286;-74
2022/12/28 10:36:51;;;;;;;16.48;9.65;;;;;;;12.20;42.62;101043.06;4482835;31;33698;-74
2022/12/28 10:39:23;;;;;;;15.82;8.55;;;;;;;11.55;44.43;101038.31;4490293;31;33889;-74
2022/12/28 10:41:51;;;;;;;16.10;7.95;;;;;;;11.96;43.30;101032.16;4485970;32;33839;-74
2022/12/28 10:44:28;;;;;;;13.68;6.93;;;;;;;12.03;42.54;101028.19;4483757;31;32242;-75
2022/12/28 10:47:17;;;;;;;9.75;4.65;;;;;;;11.74;42.32;101035.12;4484267;31;33846;-74
2022/12/28 10:49:50;;;;;;;11.38;5.45;;;;;;;8.60;46.65;101037.75;4475935;31;33498;-72
2022/12/28 10:52:38;;;;;;;7.55;4.07;;;;;;;11.00;43.31;101041.00;4477410;32;33798;-75
2022/12/28 10:55:41;;;;;;;7.32;3.33;;;;;;;10.38;43.10;101044.84;4491824;31;33486;-74
2022/12/28 10:58:21;;;;;;;10.30;4.68;;;;;;;8.66;47.71;101040.75;4422466;32;33511;-75
2022/12/28 11:01:05;;;;;;;11.50;4.47;;;;;;;8.95;47.32;101047.13;4468196;32;33640;-73
2022/12/28 11:03:35;;;;;;;8.53;4.27;;;;;;;8.66;47.89;101053.69;4484171;32;33849;-75
2022/12/28 11:06:08;;;;;;;8.30;4.68;;;;;;;7.83;50.00;101050.09;4485257;32;33298;-74
2022/12/28 11:08:38;;;;;;;11.18;5.25;;;;;;;8.22;49.75;101052.16;4483404;32;34501;-74
2022/12/28 11:11:09;;;;;;;11.75;6.07;;;;;;;7.73;51.17;101039.88;4482807;31;33818;-74
2022/12/28 11:13:37;;;;;;;10.82;5.93;;;;;;;8.30;49.51;101044.09;4475053;32;33834;-74
2022/12/28 11:16:11;;;;;;;9.85;5.93;;;;;;;9.17;47.87;101034.00;4485071;32;34140;-74
2022/12/28 11:18:39;;;;;;;12.80;5.75;;;;;;;8.64;48.23;101032.91;4480551;32;34000;-74
2022/12/28 11:21:09;;;;;;;11.45;6.25;;;;;;;8.96;48.97;101025.66;4483966;32;33899;-74
2022/12/28 11:23:37;;;;;;;17.23;6.53;;;;;;;8.19;49.42;101026.16;4483919;31;33432;-73
2022/12/28 11:26:10;;;;;;;10.95;5.47;;;;;;;7.75;51.74;101020.25;4483566;32;32777;-74
2022/12/28 11:28:40;;;;;;;11.90;5.53;;;;;;;7.77;51.96;101018.69;4483031;32;33949;-73
2022/12/28 11:31:15;;;;;;;13.60;6.53;;;;;;;8.34;50.31;101021.19;4484054;32;33958;-74
2022/12/28 11:33:47;;;;;;;;;;;;;;;8.95;50.46;101013.53;4482718;32;34312;-74
2022/12/28 11:36:17;;;;;;;10.65;4.95;;;;;;;8.96;50.13;101000.72;4471658;32;34136;-73
2022/12/28 11:38:46;;;;;;;8.23;4.47;;;;;;;8.24;50.56;100998.09;4485102;32;34356;-75
2022/12/28 11:41:23;;;;;;;8.82;4.87;;;;;;;9.31;48.78;100985.84;4485947;31;34147;-74
2022/12/28 11:44:03;;;;;;;12.68;5.80;;;;;;;9.28;49.82;100983.06;4482697;31;33781;-74
2022/12/28 11:46:34;;;;;;;8.27;4.10;;;;;;;9.60;47.83;100978.41;4490187;31;33948;-75
2022/12/28 11:49:24;;;;;;;9.25;4.30;;;;;;;9.11;47.70;100985.38;4484313;31;32852;-74
2022/12/28 11:52:19;;;;;;;8.60;4.07;;;;;;;9.77;47.39;100973.44;4484206;32;33923;-74
2022/12/28 11:54:58;;;;;;;7.53;3.70;;;;;;;10.81;44.89;100972.44;4483116;31;33667;-73
2022/12/28 11:57:37;;;;;;;7.07;3.72;;;;;;;9.13;47.93;100957.94;4488651;31;33184;-72
2022/12/28 12:00:20;;;;;;;7.18;3.78;;;;;;;8.33;50.91;100957.47;4489211;31;34589;-74
2022/12/28 12:02:59;;;;;;;8.90;3.90;;;;;;;8.79;49.07;100955.59;4476816;31;34894;-74
2022/12/28 12:05:51;;;;;;;8.93;4.45;;;;;;;9.48;47.92;100946.50;4475929;32;34004;-74
2022/12/28 12:08:21;;;;;;;11.30;5.32;;;;;;;10.19;46.26;100953.75;4487891;31;34012;-73
2022/12/28 12:11:28;;;;;;;8.00;4.37;;;;;;;10.41;46.47;100943.09;4484407;32;33102;-74
2022/12/28 12:13:58;;;;;;;10.02;4.57;;;;;;;9.81;47.18;100942.72;4482502;32;34703;-72
2022/12/28 12:16:44;;;;;;;10.30;4.80;;;;;;;9.35;48.90;100924.13;4483028;32;33439;-74
2022/12/28 12:19:22;;;;;;;12.15;4.87;;;;;;;8.98;50.14;100926.78;4487865;31;34071;-74